Time;durP1;ratioP1;P1;durP2;ratioP2;P2;SDS_P1;SDS_P2;PMS_P1;PMS_P2;Temp;Humidity;BMP_temperature;BMP_pressure;BME280_temperature;BME280_humidity;BME280_pressure;Samples;Min_cycle;Max_cycle;Signal;HPM_P1;HPM_P2
2022/06/16 00:00:24;;;;;;;5.40;4.90;;;;;;;20.40;96.95;99904.69;4993202;28;20191;-76
2022/06/16 00:02:52;;;;;;;5.23;4.83;;;;;;;20.52;96.08;99896.44;4993171;28;20199;-77
2022/06/16 00:05:21;;;;;;;6.67;5.03;;;;;;;20.60;95.54;99893.31;4993114;28;20293;-77
2022/06/16 00:07:49;;;;;;;5.23;4.73;;;;;;;20.66;95.13;99903.09;4992977;28;20264;-77
2022/06/16 00:10:16;;;;;;;5.13;4.63;;;;;;;20.70;94.51;99898.03;4992234;28;20198;-77
2022/06/16 00:12:43;;;;;;;4.90;4.50;;;;;;;20.76;94.78;99907.81;4993053;28;20654;-77
2022/06/16 00:15:14;;;;;;;6.20;4.17;;;;;;;20.83;94.14;99898.47;4992946;28;20610;-77
2022/06/16 00:17:42;;;;;;;6.40;4.43;;;;;;;20.84;93.30;99905.50;4992730;28;20206;-77
2022/06/16 00:20:09;;;;;;;4.13;3.83;;;;;;;20.82;93.49;99907.63;4992136;28;20631;-77
2022/06/16 00:22:37;;;;;;;6.43;4.67;;;;;;;20.86;93.36;99894.44;4992752;28;20202;-77
2022/06/16 00:25:06;;;;;;;5.27;4.63;;;;;;;20.94;93.55;99902.94;4992660;28;20222;-77
2022/06/16 00:27:33;;;;;;;4.80;4.40;;;;;;;21.00;92.77;99907.34;4992292;28;20250;-77
2022/06/16 00:30:01;;;;;;;6.40;4.20;;;;;;;20.97;92.40;99902.44;4993377;28;20202;-77
2022/06/16 00:32:27;;;;;;;5.17;4.77;;;;;;;21.02;92.32;99907.88;4992280;28;20270;-77
2022/06/16 00:34:57;;;;;;;5.30;4.83;;;;;;;20.92;92.23;99894.28;4992833;28;20203;-76
2022/06/16 00:37:24;;;;;;;6.83;5.17;;;;;;;20.85;92.64;99900.91;4994469;28;20195;-76
2022/06/16 00:39:51;;;;;;;4.93;4.43;;;;;;;20.90;92.35;99899.06;4995912;28;20670;-76
2022/06/16 00:42:21;;;;;;;9.33;4.67;;;;;;;20.86;92.24;99889.84;4995770;28;20206;-76
2022/06/16 00:44:50;;;;;;;4.93;4.63;;;;;;;20.87;92.78;99886.09;4996103;28;20222;-76
2022/06/16 00:47:18;;;;;;;8.17;4.80;;;;;;;20.87;92.12;99872.59;4996892;28;20198;-76
2022/06/16 00:49:45;;;;;;;4.77;4.37;;;;;;;20.96;91.75;99867.56;4995283;28;20202;-76
2022/06/16 00:52:17;;;;;;;5.60;4.60;;;;;;;21.04;91.69;99878.75;4996093;28;20199;-76
2022/06/16 00:54:51;;;;;;;4.60;3.97;;;;;;;20.99;91.32;99881.38;4995202;28;20651;-76
2022/06/16 00:57:22;;;;;;;5.07;4.67;;;;;;;20.99;92.03;99881.38;4996434;28;20187;-77
2022/06/16 00:59:50;;;;;;;6.07;4.20;;;;;;;21.02;91.26;99880.09;4995570;28;20199;-75
2022/06/16 01:02:17;;;;;;;5.83;4.17;;;;;;;21.08;91.13;99879.88;4996415;28;20198;-77
2022/06/16 01:04:52;;;;;;;4.07;3.70;;;;;;;21.16;90.52;99881.28;4995751;28;20229;-77
2022/06/16 01:07:24;;;;;;;4.40;3.93;;;;;;;20.98;91.28;99885.16;4995683;28;20190;-75
2022/06/16 01:09:52;;;;;;;5.37;4.07;;;;;;;21.01;90.90;99873.84;4996031;28;20282;-76
2022/06/16 01:15:37;;;;;;;4.30;3.90;;;;;;;21.17;90.95;99880.22;4995251;28;20194;-76
2022/06/16 01:18:16;;;;;;;4.73;4.17;;;;;;;21.14;90.83;99886.94;4996313;28;20194;-76
2022/06/16 01:20:50;;;;;;;5.77;4.20;;;;;;;21.09;90.96;99884.19;4996050;28;20199;-76
2022/06/16 01:24:06;;;;;;;4.27;3.90;;;;;;;21.14;90.08;99888.84;4995224;28;20282;-75
2022/06/16 01:27:03;;;;;;;4.53;4.10;;;;;;;21.25;90.32;99887.88;4995430;28;20539;-75
2022/06/16 01:29:38;;;;;;;5.17;4.57;;;;;;;21.20;89.88;99894.06;4994874;28;20655;-75
2022/06/16 01:32:13;;;;;;;5.87;4.67;;;;;;;21.16;90.06;99890.22;4996078;28;20190;-75
2022/06/16 01:34:48;;;;;;;5.87;5.47;;;;;;;21.23;90.12;99882.72;4995175;28;20199;-76
2022/06/16 01:37:22;;;;;;;9.10;5.10;;;;;;;21.23;90.38;99890.03;4994842;28;20182;-76
2022/06/16 01:39:58;;;;;;;7.27;6.57;;;;;;;21.14;89.98;99889.66;4995497;28;20193;-75
2022/06/16 01:42:33;;;;;;;7.00;6.50;;;;;;;21.29;89.92;99897.91;4995546;28;20256;-74
2022/06/16 01:45:09;;;;;;;5.77;5.27;;;;;;;21.29;89.92;99895.22;4994626;28;20257;-75
2022/06/16 01:47:39;;;;;;;5.63;5.13;;;;;;;21.32;89.65;99889.31;4993532;28;20187;-75
2022/06/16 01:50:11;;;;;;;6.97;5.60;;;;;;;21.35;89.18;99896.88;4995446;28;20187;-75
2022/06/16 01:52:43;;;;;;;5.10;4.80;;;;;;;21.31;89.96;99890.34;4995562;28;20261;-75
2022/06/16 01:55:14;;;;;;;8.80;5.27;;;;;;;21.33;89.28;99882.81;4994426;28;20190;-75
2022/06/16 01:57:47;;;;;;;5.63;5.13;;;;;;;21.37;89.37;99885.81;4994428;28;20224;-75
2022/06/16 02:00:17;;;;;;;5.30;4.77;;;;;;;21.27;89.64;99883.03;4995230;28;20191;-76
2022/06/16 02:02:46;;;;;;;6.93;5.93;;;;;;;21.31;89.48;99884.94;4994438;28;20191;-75
2022/06/16 02:05:17;;;;;;;4.93;4.53;;;;;;;21.28;88.73;99877.38;4994132;28;20223;-75
2022/06/16 02:07:49;;;;;;;6.30;4.83;;;;;;;21.37;88.99;99893.94;4995277;28;20194;-75
2022/06/16 02:10:19;;;;;;;5.07;4.50;;;;;;;21.46;88.61;99884.28;4993908;28;20194;-74
2022/06/16 02:12:59;;;;;;;7.60;4.73;;;;;;;21.36;88.96;99890.41;4994028;28;20308;-75
2022/06/16 02:15:38;;;;;;;9.10;4.80;;;;;;;21.35;88.74;99888.78;4995402;28;20345;-76
2022/06/16 02:18:08;;;;;;;5.10;4.70;;;;;;;21.39;88.47;99892.59;4993653;28;20676;-76
2022/06/16 02:20:44;;;;;;;4.93;4.53;;;;;;;21.50;88.69;99893.50;4994156;28;20278;-77
2022/06/16 02:23:10;;;;;;;4.80;4.30;;;;;;;21.52;87.95;99896.78;4993914;28;20199;-76
2022/06/16 02:25:37;;;;;;;5.00;4.40;;;;;;;21.28;87.94;99887.38;4993962;28;20277;-77
2022/06/16 02:28:04;;;;;;;5.47;4.03;;;;;;;21.41;88.24;99890.47;4994676;28;20198;-77
2022/06/16 02:30:39;;;;;;;5.70;4.33;;;;;;;21.44;87.95;99889.13;4994712;28;20254;-75
2022/06/16 02:33:16;;;;;;;5.17;4.20;;;;;;;21.43;87.50;99893.72;4994184;28;20261;-75
2022/06/16 02:35:49;;;;;;;4.83;4.30;;;;;;;21.51;87.56;99893.25;4993426;28;20195;-76
2022/06/16 02:38:31;;;;;;;5.43;4.57;;;;;;;21.38;87.55;99899.09;4993906;28;20195;-76
2022/06/16 02:41:15;;;;;;;5.50;4.23;;;;;;;21.41;87.43;99898.59;4994237;28;20261;-75
2022/06/16 02:43:52;;;;;;;4.53;4.13;;;;;;;21.37;87.69;99893.94;4994064;28;20190;-74
2022/06/16 02:46:35;;;;;;;4.83;4.40;;;;;;;21.31;88.12;99890.34;4993598;28;20190;-75
2022/06/16 02:49:11;;;;;;;6.87;4.30;;;;;;;21.36;88.00;99898.50;4994227;28;20600;-75
2022/06/16 02:51:44;;;;;;;4.40;4.00;;;;;;;21.40;87.66;99899.63;4993421;28;20186;-76
2022/06/16 02:54:21;;;;;;;4.10;3.83;;;;;;;21.47;87.44;99899.44;4994302;28;20610;-75
2022/06/16 02:56:54;;;;;;;6.60;5.47;;;;;;;21.02;89.30;99883.56;4993035;28;20677;-75
2022/06/16 02:59:23;;;;;;;5.90;5.40;;;;;;;21.15;88.59;99893.19;4993832;28;20564;-75
2022/06/16 03:01:53;;;;;;;6.80;4.70;;;;;;;21.21;88.62;99900.25;4993138;28;20195;-74
2022/06/16 03:04:20;;;;;;;8.70;5.13;;;;;;;21.21;87.82;99906.47;4993392;28;20226;-74
2022/06/16 03:06:48;;;;;;;8.37;7.20;;;;;;;21.03;88.38;99898.72;4992847;28;20198;-75
2022/06/16 03:09:15;;;;;;;5.97;5.60;;;;;;;21.05;88.99;99907.38;4993395;28;20195;-74
2022/06/16 03:11:42;;;;;;;7.20;5.67;;;;;;;21.02;88.97;99905.19;4993525;28;20202;-74
2022/06/16 03:14:08;;;;;;;6.00;5.40;;;;;;;21.09;88.58;99897.72;4993403;28;20596;-74
2022/06/16 03:16:36;;;;;;;8.50;6.97;;;;;;;21.20;88.73;99904.88;4993156;28;20198;-73
2022/06/16 03:19:04;;;;;;;9.43;8.63;;;;;;;21.24;88.20;99911.38;4993388;28;20649;-74
2022/06/16 03:21:30;;;;;;;14.07;8.23;;;;;;;20.95;89.76;99915.38;4993479;28;20616;-75
2022/06/16 03:23:57;;;;;;;7.90;7.03;;;;;;;20.86;89.74;99916.06;4992665;28;20198;-75
2022/06/16 03:26:24;;;;;;;7.83;6.57;;;;;;;21.00;90.27;99915.44;4994042;28;20226;-75
2022/06/16 03:28:50;;;;;;;6.07;5.50;;;;;;;21.13;89.33;99916.91;4993872;28;20194;-75
2022/06/16 03:31:17;;;;;;;6.37;5.80;;;;;;;21.15;89.10;99909.38;4993026;28;20217;-75
2022/06/16 03:33:44;;;;;;;11.73;5.60;;;;;;;21.27;89.00;99910.06;4993373;28;20288;-75
2022/06/16 03:36:13;;;;;;;8.50;6.83;;;;;;;21.35;88.12;99921.22;4992528;28;20249;-75
2022/06/16 03:38:42;;;;;;;7.00;5.90;;;;;;;21.43;87.78;99920.75;4993598;28;20199;-75
2022/06/16 03:41:09;;;;;;;6.17;4.97;;;;;;;21.50;87.17;99915.97;4992735;28;20286;-73
2022/06/16 03:43:36;;;;;;;5.33;4.80;;;;;;;21.57;86.49;99916.56;4992816;28;20199;-75
2022/06/16 03:46:03;;;;;;;6.63;5.00;;;;;;;21.63;86.27;99923.66;4993698;28;20222;-74
2022/06/16 03:48:30;;;;;;;5.97;4.43;;;;;;;21.61;86.16;99912.28;4993173;28;20191;-77
2022/06/16 03:50:56;;;;;;;7.53;5.23;;;;;;;21.64;86.00;99925.25;4993321;28;20222;-78
2022/06/16 03:53:25;;;;;;;8.87;4.87;;;;;;;21.34;86.58;99922.28;4992583;28;20249;-76
2022/06/16 03:55:52;;;;;;;6.27;5.37;;;;;;;21.43;86.95;99923.44;4992755;28;20741;-76
2022/06/16 03:58:19;;;;;;;5.57;5.07;;;;;;;21.46;86.60;99920.25;4993031;28;20195;-75
2022/06/16 04:00:46;;;;;;;9.20;4.73;;;;;;;21.55;86.50;99917.91;4993123;28;20636;-75
2022/06/16 04:05:56;;;;;;;6.77;5.20;;;;;;;21.58;85.94;99931.72;4993114;28;20718;-75
2022/06/16 04:08:25;;;;;;;6.40;4.90;;;;;;;21.61;86.30;99928.50;4992851;28;20202;-75
2022/06/16 04:10:51;;;;;;;6.07;5.40;;;;;;;21.66;86.01;99923.13;4993404;28;20194;-75
2022/06/16 04:13:18;;;;;;;9.53;6.17;;;;;;;21.61;85.48;99933.09;4996366;28;20698;-76
2022/06/16 04:15:45;;;;;;;8.40;6.20;;;;;;;21.52;86.28;99930.03;4995884;28;20202;-76
2022/06/16 04:18:12;;;;;;;7.30;6.30;;;;;;;21.35;87.31;99929.31;4997185;28;20190;-76
2022/06/16 04:20:40;;;;;;;6.67;5.80;;;;;;;21.43;86.41;99930.75;4995907;28;20687;-76
2022/06/16 04:23:10;;;;;;;9.83;6.67;;;;;;;21.58;86.49;99933.59;4996523;28;20198;-76
2022/06/16 04:25:38;;;;;;;8.30;6.10;;;;;;;21.59;85.62;99929.81;4995906;28;20236;-76
2022/06/16 04:28:07;;;;;;;6.30;5.40;;;;;;;21.69;85.85;99930.75;4996418;28;20206;-76
2022/06/16 04:30:35;;;;;;;7.07;6.37;;;;;;;21.76;85.14;99925.94;4996098;28;20234;-76
2022/06/16 04:33:01;;;;;;;7.77;6.60;;;;;;;21.88;84.80;99940.13;4995536;28;20573;-76
2022/06/16 04:35:28;;;;;;;7.13;6.47;;;;;;;21.96;84.38;99942.34;4997039;28;20198;-76
2022/06/16 04:37:56;;;;;;;7.50;6.90;;;;;;;22.01;84.15;99938.88;4996196;28;20195;-77
2022/06/16 04:40:23;;;;;;;7.40;6.80;;;;;;;22.10;83.67;99942.72;4996427;28;20203;-76
2022/06/16 04:42:51;;;;;;;7.57;6.57;;;;;;;22.16;83.01;99947.91;4995290;28;20194;-76
2022/06/16 04:45:18;;;;;;;9.30;7.57;;;;;;;22.21;82.91;99934.41;4996071;28;20222;-77
2022/06/16 04:47:45;;;;;;;8.83;7.93;;;;;;;22.21;82.44;99937.13;4996347;28;20203;-77
2022/06/16 04:50:17;;;;;;;9.17;7.50;;;;;;;22.27;82.21;99940.69;4995277;28;20191;-76
2022/06/16 04:52:44;;;;;;;8.37;7.77;;;;;;;22.32;81.55;99936.13;4996402;28;20226;-76
2022/06/16 04:55:11;;;;;;;9.00;8.10;;;;;;;22.40;82.08;99935.63;4995483;28;20198;-76
2022/06/16 04:57:38;;;;;;;12.73;9.37;;;;;;;22.48;81.49;99934.34;4995729;28;20201;-76
2022/06/16 05:00:08;;;;;;;10.53;9.57;;;;;;;22.49;80.75;99936.78;4995008;28;20249;-76
2022/06/16 05:02:35;;;;;;;10.87;9.80;;;;;;;22.31;81.63;99939.91;4995957;28;20206;-77
2022/06/16 05:05:02;;;;;;;11.20;10.07;;;;;;;22.35;81.56;99946.44;4995013;28;20261;-77
2022/06/16 05:07:29;;;;;;;11.97;9.60;;;;;;;22.36;81.81;99936.41;4995946;28;20343;-77
2022/06/16 05:09:56;;;;;;;11.17;10.07;;;;;;;22.42;81.59;99941.56;4995465;28;20223;-77
2022/06/16 05:12:23;;;;;;;14.43;10.50;;;;;;;22.48;81.53;99935.16;4995625;28;20241;-77
2022/06/16 05:14:49;;;;;;;12.23;10.63;;;;;;;22.41;82.00;99937.25;4995342;28;20659;-74
2022/06/16 05:17:18;;;;;;;17.07;11.80;;;;;;;22.43;81.29;99928.88;4994785;28;20254;-76
2022/06/16 05:19:44;;;;;;;19.10;14.33;;;;;;;22.02;82.59;99935.91;4997837;28;20198;-74
2022/06/16 05:22:11;;;;;;;16.03;12.43;;;;;;;21.93;82.95;99937.44;4994677;28;20644;-80
2022/06/16 05:24:38;;;;;;;13.60;12.07;;;;;;;22.08;82.98;99942.97;4995405;28;20198;-84
2022/06/16 05:27:05;;;;;;;13.73;11.50;;;;;;;22.07;82.03;99938.66;4994820;28;20257;-83
2022/06/16 05:29:32;;;;;;;17.97;11.00;;;;;;;22.12;82.18;99941.38;4995152;28;20624;-74
2022/06/16 05:31:59;;;;;;;9.97;9.07;;;;;;;22.18;81.56;99939.53;4998327;28;20209;-73
2022/06/16 05:34:28;;;;;;;10.97;9.27;;;;;;;22.01;82.05;99938.88;5005537;28;20252;-77
2022/06/16 05:36:55;;;;;;;9.70;8.70;;;;;;;22.06;81.86;99941.63;5001905;28;20269;-76
2022/06/16 05:39:22;;;;;;;10.83;8.80;;;;;;;22.00;81.66;99935.34;5013743;28;20202;-75
2022/06/16 05:41:48;;;;;;;10.57;9.37;;;;;;;21.99;81.83;99947.25;4997946;28;20201;-74
2022/06/16 05:44:15;;;;;;;11.57;8.63;;;;;;;22.03;83.21;99948.38;4994787;28;20229;-74
2022/06/16 05:46:42;;;;;;;12.37;9.07;;;;;;;22.21;81.08;99950.66;4994687;28;20226;-75
2022/06/16 05:49:12;;;;;;;12.73;9.37;;;;;;;22.16;81.34;99952.50;5000663;28;20194;-74
2022/06/16 05:51:40;;;;;;;16.20;8.73;;;;;;;22.09;81.33;99954.63;5013994;28;20255;-74
2022/06/16 05:54:07;;;;;;;11.63;8.90;;;;;;;22.09;81.52;99944.59;5013312;28;20682;-75
2022/06/16 05:56:35;;;;;;;9.40;8.50;;;;;;;21.88;82.39;99948.22;5013921;28;20246;-75
2022/06/16 05:59:02;;;;;;;11.50;10.10;;;;;;;22.01;82.43;99953.19;5013365;28;20198;-74
2022/06/16 06:01:29;;;;;;;12.97;10.13;;;;;;;21.94;82.57;99955.31;5013692;28;20193;-75
2022/06/16 06:03:56;;;;;;;9.87;8.47;;;;;;;22.02;83.19;99957.56;5013042;28;20194;-73
2022/06/16 06:06:22;;;;;;;11.50;9.53;;;;;;;22.17;83.75;99946.84;5005931;28;20300;-72
2022/06/16 06:17:11;;;;;;;12.53;11.03;;;;;;;21.93;83.47;99939.34;5013020;28;20255;-71
2022/06/16 06:19:38;;;;;;;14.80;11.37;;;;;;;22.10;83.05;99957.09;5012983;28;20236;-71
2022/06/16 06:22:10;;;;;;;16.43;11.47;;;;;;;21.76;84.23;99953.00;5012601;28;20244;-71
2022/06/16 06:24:40;;;;;;;13.90;12.30;;;;;;;21.90;82.80;99962.34;5008755;28;20193;-71
2022/06/16 06:27:14;;;;;;;12.57;11.43;;;;;;;21.84;83.72;99963.34;5009497;28;20226;-72
2022/06/16 06:29:41;;;;;;;12.93;11.80;;;;;;;22.02;83.58;99957.56;5009446;28;20197;-80
2022/06/16 06:32:09;;;;;;;13.33;10.30;;;;;;;22.32;83.26;99963.19;5012986;28;20230;-75
2022/06/16 06:34:36;;;;;;;17.23;11.43;;;;;;;22.66;82.87;99964.50;5012428;28;20193;-75
2022/06/16 06:37:04;;;;;;;20.77;9.90;;;;;;;23.08;81.62;99956.28;5012851;28;20268;-72
2022/06/16 06:39:30;;;;;;;11.13;10.00;;;;;;;23.32;78.31;99971.84;5012464;28;20198;-71
2022/06/16 06:41:59;;;;;;;17.70;13.03;;;;;;;23.59;75.99;99975.16;5012607;28;20266;-71
2022/06/16 06:44:26;;;;;;;12.80;10.83;;;;;;;23.81;76.42;99970.31;5012443;28;20556;-70
2022/06/16 06:46:52;;;;;;;23.43;12.33;;;;;;;24.25;74.11;99968.69;5012405;28;20219;-69
2022/06/16 06:49:20;;;;;;;16.97;12.27;;;;;;;24.50;73.24;99959.72;5018068;28;20252;-73
2022/06/16 06:51:47;;;;;;;18.50;16.10;;;;;;;24.86;71.87;99970.22;5022968;28;20291;-72
2022/06/16 06:54:14;;;;;;;12.20;9.10;;;;;;;25.11;71.41;99971.22;5016999;28;20201;-73
2022/06/16 06:56:41;;;;;;;24.23;15.80;;;;;;;25.55;68.19;99974.81;4995639;28;20260;-75
2022/06/16 06:59:13;;;;;;;19.37;15.43;;;;;;;25.56;67.93;99969.06;4996519;28;20283;-73
2022/06/16 07:01:40;;;;;;;22.03;15.53;;;;;;;25.66;67.91;99973.63;5013419;28;20214;-75
2022/06/16 07:04:07;;;;;;;27.17;15.23;;;;;;;25.74;67.07;99975.75;5012282;28;20697;-75
2022/06/16 07:06:34;;;;;;;43.17;17.37;;;;;;;25.87;66.24;99975.13;5012327;28;20226;-74
2022/06/16 07:09:01;;;;;;;16.23;13.53;;;;;;;25.80;67.85;99969.22;5012486;28;20205;-72
2022/06/16 07:11:28;;;;;;;21.67;15.17;;;;;;;25.89;66.86;99972.94;5000577;28;20257;-72
2022/06/16 07:13:54;;;;;;;31.93;16.97;;;;;;;26.23;65.30;99977.31;5007016;28;20237;-73
2022/06/16 07:16:23;;;;;;;26.60;16.17;;;;;;;26.32;64.52;99977.47;5012358;28;20260;-77
2022/06/16 07:18:50;;;;;;;15.07;12.97;;;;;;;26.54;66.21;99966.94;5009022;28;20202;-74
2022/06/16 07:21:16;;;;;;;17.30;14.93;;;;;;;26.79;63.02;99972.91;5004195;28;20662;-76
2022/06/16 07:23:43;;;;;;;16.70;12.13;;;;;;;26.95;64.19;99970.84;5011512;28;20219;-78
2022/06/16 07:26:10;;;;;;;15.33;13.77;;;;;;;27.23;62.66;99968.03;4999156;28;20222;-78
2022/06/16 07:28:38;;;;;;;18.23;14.90;;;;;;;27.62;60.93;99975.97;4992479;28;20198;-74
2022/06/16 07:31:04;;;;;;;18.43;16.50;;;;;;;28.03;59.20;99972.34;4992272;28;20198;-72
2022/06/16 07:33:33;;;;;;;21.10;19.20;;;;;;;27.78;57.63;99980.09;4992820;28;20241;-73
2022/06/16 07:36:00;;;;;;;27.43;18.67;;;;;;;27.97;58.73;99967.25;4992137;28;20198;-66
2022/06/16 07:38:27;;;;;;;19.60;17.13;;;;;;;28.54;57.44;99972.28;4992381;28;20199;-67
2022/06/16 07:41:31;;;;;;;22.50;18.60;;;;;;;28.65;54.66;99985.47;5002982;28;20202;-66
2022/06/16 07:43:41;;;;;;;22.63;18.50;;;;;;;28.84;56.45;99971.69;5012141;28;20197;-66
2022/06/16 07:46:08;;;;;;;30.20;20.90;;;;;;;28.82;54.20;99984.84;5012593;28;20582;-66
2022/06/16 07:48:36;;;;;;;26.63;19.00;;;;;;;28.80;54.23;99984.38;4997163;28;20244;-66
2022/06/16 07:51:03;;;;;;;24.27;17.60;;;;;;;28.79;55.84;99974.53;5031172;28;20258;-66
2022/06/16 07:53:30;;;;;;;26.53;18.00;;;;;;;28.93;54.63;99980.81;5035653;28;20197;-66
2022/06/16 07:55:57;;;;;;;18.40;16.70;;;;;;;29.18;54.00;99980.31;5035827;28;20197;-67
2022/06/16 07:58:29;;;;;;;18.47;16.87;;;;;;;29.53;53.77;99985.03;5027749;28;20551;-67
2022/06/16 08:00:56;;;;;;;18.57;16.80;;;;;;;29.93;53.03;99988.78;5010422;28;20523;-67
2022/06/16 08:03:26;;;;;;;19.70;17.80;;;;;;;29.71;51.39;99992.31;5015344;28;20736;-67
2022/06/16 08:06:01;;;;;;;19.77;17.77;;;;;;;29.60;51.92;99984.63;5015450;28;20222;-66
2022/06/16 08:08:29;;;;;;;19.70;16.83;;;;;;;29.33;54.03;99980.00;5015549;28;20280;-67
2022/06/16 08:10:56;;;;;;;17.43;15.77;;;;;;;29.53;52.88;99987.78;5015731;28;20201;-67
2022/06/16 08:13:26;;;;;;;18.47;16.87;;;;;;;29.73;52.40;99998.28;5014435;28;20229;-66
2022/06/16 08:15:54;;;;;;;17.90;16.20;;;;;;;29.64;51.79;99997.38;5014611;28;20202;-67
2022/06/16 08:18:23;;;;;;;17.87;15.63;;;;;;;29.77;51.17;99985.59;5014484;28;20206;-67
2022/06/16 08:20:51;;;;;;;21.17;17.57;;;;;;;29.89;50.19;99994.06;5013564;28;20197;-67
2022/06/16 08:23:19;;;;;;;19.43;17.63;;;;;;;29.74;49.69;99997.16;5013956;28;20621;-67
2022/06/16 08:25:48;;;;;;;18.57;16.87;;;;;;;29.76;49.86;99988.66;5014424;28;20301;-66
2022/06/16 08:28:19;;;;;;;18.00;16.20;;;;;;;28.94;52.37;99983.25;5013896;28;20248;-66
2022/06/16 08:30:47;;;;;;;18.83;16.37;;;;;;;29.28;51.03;99982.84;5014079;28;20205;-66
2022/06/16 08:33:18;;;;;;;17.67;15.57;;;;;;;29.60;50.71;99979.94;5014185;28;20725;-66
2022/06/16 08:35:46;;;;;;;18.13;16.37;;;;;;;29.61;49.71;99989.00;5014237;28;20182;-67
2022/06/16 08:38:14;;;;;;;19.47;17.43;;;;;;;29.82;49.34;99987.38;5013758;28;20209;-67
2022/06/16 08:40:46;;;;;;;16.93;15.63;;;;;;;29.84;50.30;99977.75;5005319;28;20624;-67
2022/06/16 08:43:24;;;;;;;18.40;16.30;;;;;;;30.01;49.73;99986.09;4994082;28;20207;-67
2022/06/16 08:45:55;;;;;;;18.47;16.10;;;;;;;30.16;49.16;99977.53;4993742;28;20194;-69
2022/06/16 08:48:31;;;;;;;16.83;15.13;;;;;;;30.40;48.12;99978.00;5011439;28;20265;-66
2022/06/16 08:51:11;;;;;;;19.90;15.53;;;;;;;30.46;47.43;99976.72;5013911;28;20247;-67
2022/06/16 08:54:01;;;;;;;17.50;15.73;;;;;;;30.66;47.71;99978.13;5014104;28;20186;-67
2022/06/16 08:56:38;;;;;;;16.53;14.77;;;;;;;30.74;45.61;99977.41;5013755;28;20194;-67
2022/06/16 08:59:12;;;;;;;33.87;16.97;;;;;;;30.49;47.05;99973.38;5013831;28;20182;-67
2022/06/16 09:01:44;;;;;;;17.07;15.43;;;;;;;29.69;48.45;99967.16;5013402;28;20193;-67
2022/06/16 09:04:15;;;;;;;18.30;16.10;;;;;;;30.21;47.72;99963.69;5013366;28;20190;-67
2022/06/16 09:06:53;;;;;;;17.90;16.03;;;;;;;30.49;47.97;99956.13;5013455;28;20307;-69
2022/06/16 09:12:34;;;;;;;14.93;13.60;;;;;;;30.48;45.85;99966.25;4974194;28;1137194;-68
2022/06/16 09:15:16;;;;;;;17.27;14.83;;;;;;;30.45;46.23;99950.44;5013000;28;20560;-67
2022/06/16 09:18:11;;;;;;;18.30;15.03;;;;;;;30.08;46.80;99953.56;5014362;28;20265;-68
2022/06/16 09:20:46;;;;;;;16.27;14.83;;;;;;;30.26;45.97;99944.38;5014158;28;20232;-67
2022/06/16 09:23:30;;;;;;;17.03;15.40;;;;;;;30.36;46.41;99952.31;5014341;28;20189;-68
2022/06/16 09:26:14;;;;;;;21.53;15.90;;;;;;;29.88;48.04;99943.13;5014244;28;20193;-67
2022/06/16 09:28:48;;;;;;;17.37;15.57;;;;;;;29.99;47.60;99941.75;5014211;28;20606;-67
2022/06/16 09:31:21;;;;;;;17.90;15.77;;;;;;;29.61;48.73;99940.50;5014077;28;20206;-67
2022/06/16 09:33:55;;;;;;;18.50;15.80;;;;;;;28.44;51.28;99926.00;5015446;28;20275;-66
2022/06/16 09:36:26;;;;;;;17.17;15.47;;;;;;;28.37;51.84;99912.69;5018420;28;20628;-68
2022/06/16 09:38:58;;;;;;;16.13;14.20;;;;;;;28.95;50.21;99932.09;5014462;28;20206;-67
2022/06/16 09:44:23;;;;;;;15.13;13.73;;;;;;;29.46;49.73;99918.91;4994487;28;20259;-63
2022/06/16 09:46:56;;;;;;;27.73;14.77;;;;;;;29.67;48.86;99914.59;4999244;28;20217;-64
2022/06/16 09:49:26;;;;;;;10.83;9.83;;;;;;;29.85;47.30;99916.38;5013909;28;20186;-65
2022/06/16 09:51:58;;;;;;;10.97;10.23;;;;;;;29.85;46.07;99916.38;5010663;28;20260;-64
2022/06/16 09:54:29;;;;;;;10.23;9.43;;;;;;;30.16;45.39;99921.88;5014514;28;20202;-67
2022/06/16 09:57:02;;;;;;;9.37;8.67;;;;;;;30.39;45.15;99920.72;5013747;28;20256;-67
2022/06/16 09:59:34;;;;;;;9.93;8.60;;;;;;;30.61;45.33;99924.22;5014042;28;20248;-66
2022/06/16 10:02:06;;;;;;;9.40;8.60;;;;;;;30.88;43.68;99932.25;5013326;28;20190;-69
2022/06/16 10:04:33;;;;;;;9.70;9.00;;;;;;;31.13;43.40;99931.50;5013603;28;20194;-71
2022/06/16 10:07:09;;;;;;;9.07;8.33;;;;;;;31.39;41.75;99917.84;5012931;28;20697;-70
2022/06/16 10:09:48;;;;;;;9.33;8.63;;;;;;;31.34;42.28;99921.53;5011553;28;20740;-72
2022/06/16 10:12:24;;;;;;;9.40;8.53;;;;;;;31.57;41.25;99916.69;4993511;28;20732;-69
2022/06/16 10:15:00;;;;;;;8.30;7.50;;;;;;;31.60;40.76;99919.59;5009926;28;20226;-68
2022/06/16 10:17:29;;;;;;;8.53;7.83;;;;;;;31.62;40.38;99911.84;5013105;28;20194;-66
2022/06/16 10:19:57;;;;;;;7.87;7.27;;;;;;;31.51;40.30;99909.75;5013234;28;20202;-68
2022/06/16 10:22:26;;;;;;;8.10;7.50;;;;;;;31.34;39.88;99910.56;5013334;28;20194;-71
2022/06/16 10:24:58;;;;;;;9.10;7.87;;;;;;;31.41;40.90;99899.91;5013043;28;20329;-70
2022/06/16 10:27:30;;;;;;;13.30;7.67;;;;;;;31.33;42.65;99903.47;5013600;28;20213;-68
2022/06/16 10:30:00;;;;;;;7.97;7.47;;;;;;;31.18;42.08;99887.41;5012910;28;20666;-69
2022/06/16 10:32:38;;;;;;;8.73;8.03;;;;;;;31.10;41.99;99884.66;5009519;28;20202;-69
2022/06/16 10:35:06;;;;;;;7.97;7.47;;;;;;;30.65;43.82;99869.50;4993947;28;20273;-67
2022/06/16 10:37:34;;;;;;;7.70;7.13;;;;;;;30.89;43.62;99876.22;4992858;28;20253;-67
2022/06/16 10:40:06;;;;;;;8.37;7.57;;;;;;;30.96;43.13;99865.59;4996523;28;20674;-67
2022/06/16 10:42:40;;;;;;;8.17;7.50;;;;;;;31.08;43.98;99874.00;5013180;28;20190;-67
2022/06/16 10:45:13;;;;;;;8.77;8.17;;;;;;;31.07;42.92;99866.09;5012527;28;20352;-67
2022/06/16 10:47:42;;;;;;;7.90;7.50;;;;;;;31.03;42.54;99876.09;5001323;28;20289;-67
2022/06/16 10:50:18;;;;;;;7.03;6.63;;;;;;;31.02;41.90;99871.72;4993078;28;20616;-67
2022/06/16 10:52:50;;;;;;;8.87;8.27;;;;;;;31.06;42.21;99865.28;4993395;28;20545;-67
2022/06/16 10:55:20;;;;;;;8.43;7.80;;;;;;;31.07;42.41;99868.84;4993018;28;20198;-67
2022/06/16 10:57:50;;;;;;;8.27;7.47;;;;;;;31.04;42.93;99840.09;4992770;28;20201;-66
2022/06/16 11:00:21;;;;;;;13.87;8.00;;;;;;;31.29;40.66;99853.06;5010706;28;20203;-67
2022/06/16 11:02:58;;;;;;;8.23;7.47;;;;;;;31.38;40.78;99864.84;5012055;28;20641;-68
2022/06/16 11:05:27;;;;;;;8.53;7.77;;;;;;;31.39;41.34;99863.72;5013197;28;20186;-67
2022/06/16 11:08:04;;;;;;;8.17;7.67;;;;;;;31.46;40.11;99861.28;5012336;28;20577;-67
2022/06/16 11:10:34;;;;;;;7.40;6.90;;;;;;;31.26;39.90;99856.44;4997651;28;20191;-67
2022/06/16 11:13:02;;;;;;;7.47;7.07;;;;;;;31.45;40.42;99845.13;4993505;28;20230;-67
2022/06/16 11:15:35;;;;;;;9.13;7.67;;;;;;;31.03;41.63;99843.97;5011813;28;20198;-67
2022/06/16 11:18:05;;;;;;;8.53;7.83;;;;;;;31.13;41.83;99832.69;5012494;28;20276;-67
2022/06/16 11:20:37;;;;;;;6.87;6.17;;;;;;;31.14;40.06;99842.50;5012348;28;20197;-67
2022/06/16 11:23:19;;;;;;;6.47;6.07;;;;;;;30.96;40.40;99832.66;5012810;28;20197;-68
2022/06/16 11:25:47;;;;;;;7.87;7.13;;;;;;;30.55;42.45;99832.25;5012393;28;20205;-69
2022/06/16 11:28:20;;;;;;;7.67;7.20;;;;;;;30.41;43.97;99828.78;5012384;28;20222;-67
2022/06/16 11:30:58;;;;;;;7.57;7.10;;;;;;;30.51;44.10;99820.28;5012244;28;20551;-66
2022/06/16 11:36:20;;;;;;;7.77;7.20;;;;;;;30.80;43.23;99820.53;5012182;28;20185;-67
2022/06/16 11:38:54;;;;;;;7.20;6.73;;;;;;;30.43;43.15;99814.78;5012548;28;20280;-67
2022/06/16 11:41:25;;;;;;;6.47;6.07;;;;;;;30.56;41.61;99811.09;4997894;28;20190;-67
2022/06/16 11:44:16;;;;;;;9.27;6.87;;;;;;;30.72;41.37;99799.38;4992304;28;20670;-67
2022/06/16 11:46:53;;;;;;;6.87;6.53;;;;;;;30.94;42.19;99806.69;4996053;28;20245;-67
2022/06/16 11:49:33;;;;;;;6.17;5.90;;;;;;;30.69;41.09;99811.00;5011670;28;20225;-67
2022/06/16 11:52:13;;;;;;;6.30;5.77;;;;;;;30.60;42.05;99803.84;5010374;28;20826;-67
2022/06/16 11:54:51;;;;;;;6.43;5.97;;;;;;;30.39;43.26;99806.38;5010454;28;20186;-66
2022/06/16 11:57:27;;;;;;;6.67;6.10;;;;;;;30.11;44.49;99794.00;5012070;28;20192;-67
2022/06/16 12:00:14;;;;;;;7.60;6.17;;;;;;;29.89;45.05;99796.81;5011744;28;20182;-67
2022/06/16 12:03:20;;;;;;;7.27;6.60;;;;;;;29.99;44.91;99782.81;5011756;28;20191;-67
2022/06/16 12:05:59;;;;;;;6.57;6.17;;;;;;;29.68;46.28;99795.72;5007797;28;20285;-72